Time;durP1;ratioP1;P1;durP2;ratioP2;P2;SDS_P1;SDS_P2;PMS_P1;PMS_P2;Temp;Humidity;BMP_temperature;BMP_pressure;BME280_temperature;BME280_humidity;BME280_pressure;Samples;Min_cycle;Max_cycle;Signal;HPM_P1;HPM_P2
2023/05/03 00:00:17;;;;;;;12.65;6.60;;;11.60;99.90;;;11.86;60.34;102803.28;5109250;28;20051;-70
2023/05/03 00:02:45;;;;;;;7.03;6.05;;;11.60;99.90;;;11.81;60.78;102805.84;5109521;28;20462;-70
2023/05/03 00:05:14;;;;;;;9.55;5.72;;;11.50;99.90;;;11.82;61.18;102812.03;5113274;28;20036;-70
2023/05/03 00:07:44;;;;;;;9.40;6.03;;;11.50;99.90;;;11.72;60.88;102798.59;5113205;28;20119;-70
2023/05/03 00:10:14;;;;;;;8.77;6.00;;;11.50;99.90;;;11.80;60.78;102812.00;5113189;28;20051;-71
2023/05/03 00:12:44;;;;;;;10.63;6.57;;;11.50;99.90;;;11.23;60.81;102710.88;5112983;28;20416;-70
2023/05/03 00:15:13;;;;;;;9.35;6.50;;;11.50;99.90;;;11.79;61.15;102818.16;5113200;28;20085;-70
2023/05/03 00:17:41;;;;;;;9.05;6.63;;;11.50;99.90;;;11.77;61.04;102814.59;5112840;28;20035;-71
2023/05/03 00:20:11;;;;;;;11.48;6.88;;;11.50;99.90;;;11.75;61.17;102809.25;5112776;28;20040;-71
2023/05/03 00:22:40;;;;;;;8.17;6.17;;;11.40;99.90;;;11.67;61.22;102805.53;5109293;28;20073;-70
2023/05/03 00:25:09;;;;;;;9.13;6.70;;;11.40;99.90;;;11.68;61.54;102801.13;5112806;28;20043;-71
2023/05/03 00:27:38;;;;;;;8.77;6.60;;;11.40;99.90;;;11.72;61.26;102801.25;5103681;28;20051;-70
2023/05/03 00:30:09;;;;;;;8.10;6.32;;;11.40;99.90;;;11.71;61.11;102804.75;5094655;28;20047;-70
2023/05/03 00:32:38;;;;;;;8.77;6.68;;;11.40;99.90;;;11.70;61.60;102802.97;5113109;28;20044;-70
2023/05/03 00:35:08;;;;;;;10.15;6.93;;;11.40;99.90;;;11.70;61.32;102804.72;5112958;28;20040;-70
2023/05/03 00:37:37;;;;;;;11.20;6.47;;;11.40;99.90;;;11.69;61.56;102802.94;5112748;28;20400;-70
2023/05/03 00:40:07;;;;;;;9.15;6.93;;;11.40;99.90;;;11.60;61.35;102800.03;5108571;28;20043;-71
2023/05/03 00:42:36;;;;;;;10.80;6.95;;;11.40;99.90;;;11.62;61.70;102815.13;5109334;28;20113;-70
2023/05/03 00:45:07;;;;;;;11.32;7.35;;;11.40;99.90;;;11.56;61.77;102803.47;5095963;28;20105;-71
2023/05/03 00:47:37;;;;;;;11.15;7.55;;;11.30;99.90;;;11.60;62.04;102800.03;5090023;28;20044;-70
2023/05/03 00:50:10;;;;;;;11.57;7.55;;;11.30;99.90;;;11.55;62.04;102807.00;5098671;28;20428;-70
2023/05/03 00:52:39;;;;;;;8.45;6.35;;;11.30;99.90;;;11.51;61.90;102805.13;5117007;28;20163;-70
2023/05/03 00:55:10;;;;;;;11.00;6.55;;;11.20;99.90;;;11.51;62.52;102815.75;5113012;28;20427;-70
2023/05/03 00:57:38;;;;;;;10.23;6.72;;;11.20;99.90;;;11.47;62.38;102816.53;5086486;28;20390;-70
2023/05/03 01:00:12;;;;;;;14.40;6.88;;;11.20;99.90;;;11.43;62.74;102812.91;5116675;28;20043;-70
2023/05/03 01:02:41;;;;;;;8.55;7.10;;;11.20;99.90;;;11.46;62.89;102818.28;5116697;28;20044;-70
2023/05/03 01:05:10;;;;;;;13.30;7.32;;;11.20;99.90;;;11.36;63.05;102816.25;5090185;28;20138;-70
2023/05/03 01:07:50;;;;;;;9.95;7.05;;;11.20;99.90;;;11.45;63.08;102816.50;5098282;28;20051;-70
2023/05/03 01:10:28;;;;;;;11.48;7.88;;;11.20;99.90;;;10.96;63.08;102749.97;5113196;28;20438;-70
2023/05/03 01:13:07;;;;;;;9.30;7.40;;;11.10;99.90;;;11.41;63.29;102814.63;5116268;28;20485;-71
2023/05/03 01:15:47;;;;;;;10.57;6.80;;;11.10;99.90;;;11.36;63.09;102807.44;5086166;28;20093;-70
2023/05/03 01:18:21;;;;;;;9.02;6.65;;;11.10;99.90;;;11.35;63.63;102809.19;5090061;28;20478;-70
2023/05/03 01:20:52;;;;;;;10.40;6.85;;;11.10;99.90;;;11.35;63.56;102798.59;5116329;28;20388;-70
2023/05/03 01:23:40;;;;;;;8.80;6.95;;;11.10;99.90;;;11.42;63.14;102808.47;5077861;28;20048;-70
2023/05/03 01:26:20;;;;;;;11.57;7.85;;;11.10;99.90;;;11.30;63.45;102805.53;5094533;28;20044;-70
2023/05/03 01:28:49;;;;;;;11.93;7.18;;;11.00;99.90;;;11.21;63.82;102789.41;5113270;28;20516;-70
2023/05/03 01:31:23;;;;;;;8.20;6.53;;;11.00;99.90;;;11.25;63.57;102798.31;5097765;28;20035;-70
2023/05/03 01:34:09;;;;;;;12.25;7.03;;;10.90;99.90;;;11.21;63.97;102794.72;5116113;28;20043;-70
2023/05/03 01:36:39;;;;;;;10.98;6.90;;;10.90;99.90;;;11.22;64.12;102790.31;5113851;28;20044;-70
2023/05/03 01:39:13;;;;;;;13.33;6.60;;;10.90;99.90;;;11.18;64.05;102768.16;5115995;28;20431;-70
2023/05/03 01:41:44;;;;;;;11.13;7.60;;;10.90;99.90;;;11.27;64.03;102780.72;5115963;28;20039;-70
2023/05/03 01:44:13;;;;;;;;;;;10.90;99.90;;;11.26;63.74;102768.34;5090885;28;20059;-70
2023/05/03 01:46:44;;;;;;;7.85;6.63;;;11.00;99.90;;;11.24;63.39;102764.75;5115597;28;20303;-70
2023/05/03 01:49:13;;;;;;;10.18;7.18;;;11.00;99.90;;;11.24;63.57;102752.41;5097422;28;20500;-70
2023/05/03 01:51:41;;;;;;;9.95;7.28;;;11.00;99.90;;;11.23;63.36;102753.25;5089417;28;20474;-70
2023/05/03 01:54:11;;;;;;;9.35;7.15;;;11.00;99.90;;;11.19;63.55;102746.09;5115717;28;20370;-70
2023/05/03 01:56:40;;;;;;;8.90;7.22;;;10.90;99.90;;;11.00;63.74;102735.94;5096180;28;20039;-70
2023/05/03 01:59:10;;;;;;;9.43;7.05;;;10.80;99.90;;;10.95;64.31;102720.81;5096820;28;20059;-70
2023/05/03 02:01:39;;;;;;;10.80;8.00;;;10.70;99.90;;;10.98;64.60;102719.13;5097189;28;20050;-70
2023/05/03 02:04:08;;;;;;;11.63;7.47;;;10.70;99.90;;;10.89;64.89;102721.56;5111686;28;20048;-70
2023/05/03 02:06:36;;;;;;;11.43;8.43;;;10.60;99.90;;;10.81;65.15;102710.78;5097143;28;20450;-70
2023/05/03 02:09:05;;;;;;;12.73;8.07;;;10.60;99.90;;;10.81;65.55;102729.31;5097155;28;20392;-70
2023/05/03 02:11:33;;;;;;;12.40;8.43;;;10.60;99.90;;;10.82;65.55;102739.03;5115393;28;20054;-70
2023/05/03 02:14:01;;;;;;;13.32;7.70;;;10.60;99.90;;;10.78;65.62;102741.59;5088886;28;20071;-70
2023/05/03 02:16:31;;;;;;;12.07;8.05;;;10.60;99.90;;;10.70;66.35;102745.78;5115574;28;20039;-70
2023/05/03 02:18:59;;;;;;;9.43;8.02;;;10.50;99.90;;;10.74;66.53;102743.25;5096874;28;20545;-70
2023/05/03 02:21:28;;;;;;;10.95;7.28;;;10.50;99.90;;;10.78;66.33;102749.53;5115112;28;20050;-70
2023/05/03 02:23:56;;;;;;;11.70;7.55;;;10.50;99.90;;;10.77;66.37;102753.91;5085345;28;20067;-70
2023/05/03 02:26:24;;;;;;;9.63;7.80;;;10.50;99.90;;;10.60;66.37;102739.38;5114781;28;20403;-70
2023/05/03 02:28:54;;;;;;;9.02;7.60;;;10.40;99.90;;;10.60;66.69;102759.63;5111069;28;20114;-70
2023/05/03 02:31:23;;;;;;;12.02;7.55;;;10.40;99.90;;;10.52;66.29;102766.47;5085332;28;20052;-70
2023/05/03 02:33:53;;;;;;;12.32;7.93;;;10.40;99.90;;;10.53;66.89;102763.00;5114966;28;20112;-70
2023/05/03 02:36:23;;;;;;;9.50;8.00;;;10.30;99.90;;;10.44;67.06;102766.28;5096925;28;20051;-70
2023/05/03 02:38:51;;;;;;;9.90;7.35;;;10.30;99.90;;;10.48;67.50;102767.25;5114866;28;20119;-70
2023/05/03 02:41:20;;;;;;;9.75;7.25;;;10.20;99.90;;;10.48;67.62;102764.59;5114704;28;20036;-70
2023/05/03 02:43:49;;;;;;;10.05;7.65;;;10.20;99.90;;;10.50;67.29;102784.06;5088324;28;20055;-70
2023/05/03 02:46:18;;;;;;;12.00;7.63;;;10.30;99.90;;;10.50;67.44;102778.78;5096339;28;20138;-70
2023/05/03 02:48:46;;;;;;;12.75;7.65;;;10.30;99.90;;;10.42;67.53;102754.75;5110274;28;20062;-70
2023/05/03 02:51:16;;;;;;;10.77;6.97;;;10.20;99.90;;;10.46;67.87;102756.63;5110828;28;20051;-70
2023/05/03 02:53:44;;;;;;;11.10;7.13;;;10.20;99.90;;;10.38;67.88;102762.56;5096013;28;20048;-70
2023/05/03 02:56:13;;;;;;;10.20;7.80;;;10.20;99.90;;;10.15;68.15;102771.63;5096118;28;20535;-70
2023/05/03 02:58:41;;;;;;;10.55;7.32;;;10.00;99.90;;;10.10;68.19;102738.88;5113948;28;20059;-70
2023/05/03 03:01:11;;;;;;;8.98;7.22;;;10.00;99.90;;;10.29;68.01;102767.63;5095968;28;20058;-70
2023/05/03 03:03:40;;;;;;;9.90;7.30;;;10.10;99.90;;;10.35;68.37;102775.72;5096043;28;20048;-70
2023/05/03 03:06:09;;;;;;;9.90;7.40;;;10.10;99.90;;;10.30;68.10;102777.38;5095994;28;20293;-70
2023/05/03 03:08:38;;;;;;;10.85;7.43;;;10.10;99.90;;;10.32;68.54;102789.75;5113889;28;20118;-70
2023/05/03 03:11:08;;;;;;;8.60;6.68;;;10.10;99.90;;;10.33;68.41;102788.00;5083825;28;20070;-70
2023/05/03 03:13:38;;;;;;;11.00;6.88;;;10.10;99.90;;;10.36;68.79;102788.97;5095828;28;20400;-70
2023/05/03 03:16:07;;;;;;;9.40;6.43;;;10.10;99.90;;;10.38;68.47;102789.00;5095879;28;20055;-70
2023/05/03 03:18:36;;;;;;;13.30;6.80;;;10.10;99.90;;;10.39;68.26;102793.47;5114046;28;20134;-70
2023/05/03 03:21:05;;;;;;;8.90;7.25;;;10.10;99.90;;;10.42;68.27;102785.59;5095558;28;20496;-70
2023/05/03 03:23:35;;;;;;;8.63;6.72;;;10.20;99.90;;;10.37;68.04;102774.00;5095728;28;20062;-70
2023/05/03 03:26:05;;;;;;;12.55;7.63;;;10.20;99.90;;;10.45;68.01;102772.47;5095605;28;20043;-70
2023/05/03 03:28:34;;;;;;;10.75;6.40;;;10.20;99.90;;;10.43;67.81;102771.53;5083773;28;20051;-70
2023/05/03 03:31:08;;;;;;;8.80;6.43;;;10.20;99.90;;;10.39;68.10;102774.97;5089835;28;20439;-70
2023/05/03 03:33:36;;;;;;;10.68;7.88;;;10.20;99.90;;;10.37;67.95;102774.00;5113764;28;20126;-70
2023/05/03 03:36:11;;;;;;;7.97;6.78;;;10.20;99.90;;;10.26;68.20;102773.72;5113728;28;20122;-70
2023/05/03 03:38:42;;;;;;;9.35;6.50;;;10.10;99.90;;;10.27;67.96;102783.44;5095498;28;20055;-70
2023/05/03 03:41:13;;;;;;;8.98;6.75;;;10.00;99.90;;;10.26;68.15;102794.00;5083097;28;20075;-70
2023/05/03 03:43:41;;;;;;;13.45;6.60;;;10.00;99.90;;;10.24;68.08;102791.28;5109759;28;20419;-70
2023/05/03 03:46:16;;;;;;;9.98;6.70;;;10.00;99.90;;;9.67;68.25;102700.66;5094974;28;20134;-70
2023/05/03 03:48:46;;;;;;;9.73;6.85;;;10.00;99.90;;;10.21;68.75;102800.88;5095327;28;20073;-70
2023/05/03 03:51:15;;;;;;;9.50;6.93;;;10.00;99.90;;;10.20;69.03;102801.75;5113205;28;20039;-70
2023/05/03 03:53:47;;;;;;;9.23;6.95;;;10.00;99.90;;;10.29;69.16;102807.28;5083622;28;20048;-70
2023/05/03 03:56:17;;;;;;;7.75;6.50;;;10.00;99.90;;;10.27;69.01;102806.34;5086896;28;20135;-70
2023/05/03 03:58:48;;;;;;;9.77;7.35;;;10.00;99.90;;;10.24;68.73;102811.56;5088949;28;20083;-70
2023/05/03 04:01:17;;;;;;;10.65;7.10;;;10.00;99.90;;;10.18;68.75;102812.25;5113228;28;20059;-70
2023/05/03 04:03:46;;;;;;;11.40;6.68;;;10.00;99.90;;;10.27;68.54;102816.94;5113615;28;20135;-70
2023/05/03 04:06:15;;;;;;;8.98;6.63;;;10.00;99.90;;;10.01;68.44;102769.47;5094905;28;20130;-70
2023/05/03 04:08:43;;;;;;;10.63;6.53;;;9.90;99.90;;;10.27;68.41;102811.63;5113307;28;20046;-70
2023/05/03 04:11:14;;;;;;;10.63;6.82;;;10.00;99.90;;;10.24;67.93;102812.44;5094990;28;20047;-70
2023/05/03 04:13:52;;;;;;;13.23;6.90;;;10.00;99.90;;;10.26;68.23;102816.03;5091615;28;20052;-70
2023/05/03 04:16:20;;;;;;;12.73;6.97;;;10.00;99.90;;;10.16;68.84;102813.09;5094619;28;20047;-70
2023/05/03 04:18:49;;;;;;;13.30;7.00;;;9.90;99.90;;;10.10;69.05;102802.34;5086570;28;20039;-70
2023/05/03 04:21:18;;;;;;;13.07;6.93;;;9.90;99.90;;;10.14;68.91;102809.50;5112681;28;20080;-70
2023/05/03 04:23:47;;;;;;;8.05;6.70;;;9.90;99.90;;;10.09;68.88;102796.13;5086711;28;20046;-70
2023/05/03 04:26:21;;;;;;;11.10;6.35;;;9.90;99.90;;;10.18;69.00;102795.53;5094854;28;20046;-70
2023/05/03 04:29:06;;;;;;;11.30;7.20;;;9.90;99.90;;;10.14;68.76;102799.84;5084492;28;20727;-70
2023/05/03 04:31:35;;;;;;;14.20;7.82;;;9.90;99.90;;;10.11;68.85;102793.53;5094733;28;20081;-70
2023/05/03 04:34:04;;;;;;;11.15;7.47;;;9.90;99.90;;;10.16;68.71;102794.59;5094374;28;20079;-70
2023/05/03 04:36:34;;;;;;;8.10;6.65;;;9.90;99.90;;;10.18;69.03;102795.53;5112820;28;20454;-70
2023/05/03 04:39:03;;;;;;;9.70;7.20;;;9.90;99.90;;;10.10;68.70;102797.06;5109023;28;20044;-70
2023/05/03 04:41:32;;;;;;;16.45;6.63;;;9.80;99.90;;;10.00;68.55;102791.47;5094517;28;20480;-70
2023/05/03 04:44:00;;;;;;;12.60;7.47;;;9.80;99.90;;;10.08;68.92;102790.78;5112870;28;20047;-70
2023/05/03 04:46:30;;;;;;;8.65;6.20;;;9.80;99.90;;;10.14;68.94;102797.19;5112917;28;20492;-70
2023/05/03 04:48:58;;;;;;;10.60;6.10;;;9.90;99.90;;;10.12;69.17;102790.97;5112940;28;20043;-70
2023/05/03 04:51:27;;;;;;;9.73;6.68;;;9.90;99.90;;;10.14;68.61;102788.34;5112801;28;20433;-70
2023/05/03 04:53:56;;;;;;;10.77;6.80;;;9.90;99.90;;;10.13;68.39;102789.19;5086447;28;20058;-70
2023/05/03 04:56:25;;;;;;;10.68;6.93;;;9.90;99.90;;;10.21;67.92;102796.50;5112801;28;20071;-70
2023/05/03 04:59:03;;;;;;;14.40;6.72;;;10.00;99.90;;;10.26;68.06;102799.28;5109073;28;20416;-70
2023/05/03 05:01:34;;;;;;;10.80;6.43;;;10.00;99.90;;;10.28;67.74;102798.44;5112710;28;20036;-70
2023/05/03 05:04:04;;;;;;;13.57;6.63;;;10.10;99.90;;;10.30;67.68;102806.47;5086406;28;20044;-70
2023/05/03 05:06:39;;;;;;;11.15;6.28;;;10.00;99.90;;;10.32;67.55;102808.25;5094421;28;20047;-70
2023/05/03 05:09:20;;;;;;;9.50;6.30;;;10.10;99.90;;;10.32;67.50;102808.25;5090445;28;20071;-70
2023/05/03 05:11:50;;;;;;;12.82;6.47;;;10.10;99.90;;;10.41;67.34;102812.94;5094358;28;20094;-70
2023/05/03 05:14:21;;;;;;;11.10;6.72;;;10.10;99.90;;;10.12;67.70;102809.47;5086303;28;20074;-70
2023/05/03 05:16:51;;;;;;;10.15;6.45;;;10.00;99.90;;;10.08;67.93;102806.66;5090838;28;20151;-70
2023/05/03 05:19:20;;;;;;;11.48;6.22;;;9.90;99.90;;;10.18;67.91;102816.69;5074234;28;20627;-69
2023/05/03 05:21:49;;;;;;;13.60;7.38;;;10.00;99.90;;;10.07;68.48;102812.78;5112644;28;20481;-70
2023/05/03 05:24:17;;;;;;;11.93;6.57;;;9.90;99.90;;;10.17;67.97;102812.22;5085919;28;20040;-69
2023/05/03 05:26:46;;;;;;;13.50;6.85;;;9.90;99.90;;;10.28;68.28;102819.59;5094075;28;20389;-70
2023/05/03 05:29:16;;;;;;;9.60;6.30;;;10.00;99.90;;;10.30;67.95;102812.63;5085681;28;20044;-70
2023/05/03 05:31:45;;;;;;;11.25;6.78;;;10.10;99.90;;;10.42;67.33;102827.94;5096321;28;20070;-69
2023/05/03 05:34:15;;;;;;;10.38;6.65;;;10.20;99.90;;;10.42;67.31;102830.56;5097753;28;20043;-70
2023/05/03 05:36:44;;;;;;;13.90;7.03;;;10.10;99.90;;;10.61;66.79;102832.88;5097689;28;20048;-70
2023/05/03 05:39:13;;;;;;;12.07;6.53;;;10.30;99.90;;;10.66;65.96;102839.19;5085610;28;20139;-69
2023/05/03 05:41:41;;;;;;;10.73;6.00;;;10.40;99.90;;;10.77;65.41;102838.63;5112091;28;20066;-68
2023/05/03 05:44:12;;;;;;;8.73;6.05;;;10.50;99.90;;;10.92;65.46;102838.09;5097485;28;20078;-69
2023/05/03 05:46:41;;;;;;;8.00;5.90;;;10.60;99.90;;;10.81;65.42;102831.66;5097553;28;20054;-69
2023/05/03 05:49:10;;;;;;;8.65;6.15;;;10.60;99.90;;;10.80;64.79;102822.81;5097064;28;20135;-70
2023/05/03 05:51:40;;;;;;;8.65;6.30;;;10.70;99.90;;;10.75;64.66;102823.56;5089094;28;20054;-69
2023/05/03 05:54:09;;;;;;;14.32;6.60;;;10.60;99.90;;;10.68;64.59;102848.06;5097201;28;20051;-69
2023/05/03 05:56:37;;;;;;;11.68;5.95;;;10.60;99.90;;;10.75;65.74;102832.41;5089160;28;20534;-70
2023/05/03 05:59:06;;;;;;;12.20;6.82;;;10.40;99.90;;;10.44;67.34;102831.50;5096754;28;20048;-69
2023/05/03 06:01:35;;;;;;;12.68;6.30;;;10.20;99.90;;;10.44;67.67;102828.88;5097136;28;20047;-69
2023/05/03 06:04:05;;;;;;;15.82;6.65;;;10.10;99.90;;;10.92;66.61;102821.34;5097131;28;20047;-70
2023/05/03 06:06:34;;;;;;;8.32;6.20;;;10.50;99.90;;;10.67;64.97;102825.09;5089196;28;20039;-69
2023/05/03 06:09:04;;;;;;;7.95;6.18;;;10.60;99.90;;;10.59;66.58;102818.69;5115399;28;20081;-70
2023/05/03 06:11:53;;;;;;;;;;;10.30;99.90;;;10.45;65.23;102813.03;5094477;28;20051;-69
2023/05/03 06:14:22;;;;;;;19.48;7.13;;;10.30;99.90;;;9.84;67.56;102827.97;5096640;28;19920;-70
2023/05/03 06:16:50;;;;;;;9.27;5.95;;;9.90;99.90;;;9.60;69.75;102830.75;5088684;28;20047;-71
2023/05/03 06:19:19;;;;;;;10.93;5.88;;;9.50;99.90;;;9.84;69.97;102817.41;5115219;28;20046;-71
2023/05/03 06:21:48;;;;;;;12.55;6.60;;;9.60;99.90;;;10.54;68.51;102830.91;5088767;28;20126;-70
2023/05/03 06:24:19;;;;;;;10.82;6.47;;;10.10;99.90;;;10.63;66.04;102823.22;5096723;28;20048;-70
2023/05/03 06:26:52;;;;;;;9.95;5.80;;;10.30;99.90;;;10.38;65.81;102815.47;5092905;28;20096;-70
2023/05/03 06:29:20;;;;;;;12.52;5.97;;;10.20;99.90;;;10.37;65.22;102808.41;5096891;28;20101;-70
2023/05/03 06:31:48;;;;;;;16.77;6.20;;;10.20;99.90;;;10.41;65.92;102808.53;5096603;28;20055;-71
2023/05/03 06:34:20;;;;;;;7.43;5.82;;;10.20;99.90;;;10.68;64.61;102817.19;5096645;28;20088;-70
2023/05/03 06:36:51;;;;;;;9.40;5.60;;;10.40;99.90;;;10.86;64.71;102814.13;5088559;28;20408;-70
2023/05/03 06:39:20;;;;;;;13.18;5.47;;;10.60;99.90;;;10.26;64.25;102820.44;5096386;28;20109;-71
2023/05/03 06:41:49;;;;;;;9.07;5.37;;;10.20;99.90;;;10.18;66.23;102808.75;5115122;28;20054;-70
2023/05/03 06:44:18;;;;;;;9.80;5.43;;;9.90;99.90;;;10.31;65.53;102806.50;5092391;28;20050;-70
2023/05/03 06:46:46;;;;;;;13.93;5.07;;;10.00;99.90;;;9.65;64.57;102810.69;5076003;28;20062;-70
2023/05/03 06:49:15;;;;;;;9.45;5.32;;;9.60;99.90;;;9.98;65.55;102798.47;5096229;28;20542;-70
2023/05/03 06:51:44;;;;;;;9.38;5.35;;;9.60;99.90;;;9.88;63.87;102790.22;5088148;28;20048;-69
2023/05/03 06:54:14;;;;;;;10.25;5.28;;;9.70;99.90;;;9.80;64.97;102800.56;5096121;28;20071;-70
2023/05/03 06:56:44;;;;;;;7.53;5.05;;;9.60;99.90;;;9.99;66.09;102794.97;5114063;28;20143;-71
2023/05/03 06:59:13;;;;;;;8.98;5.65;;;9.70;99.90;;;10.02;67.31;102796.81;5114362;28;20083;-71
2023/05/03 07:01:41;;;;;;;7.72;5.07;;;9.70;99.90;;;10.46;63.88;102800.72;5114161;28;20036;-71
2023/05/03 07:04:10;;;;;;;7.65;5.38;;;10.10;99.90;;;10.74;62.64;102792.66;5113967;28;20067;-71
2023/05/03 07:06:39;;;;;;;9.15;4.63;;;10.40;99.90;;;10.58;63.44;102814.28;5110174;28;20054;-71
2023/05/03 07:09:23;;;;;;;12.23;4.85;;;10.40;99.90;;;10.18;64.29;102790.25;5112508;28;20110;-71
2023/05/03 07:12:11;;;;;;;6.93;4.75;;;10.00;99.90;;;9.87;64.60;102786.66;5111328;28;20400;-71
2023/05/03 07:14:40;;;;;;;6.47;4.72;;;9.80;99.90;;;10.38;63.56;102789.91;5114215;28;20058;-70
2023/05/03 07:17:08;;;;;;;8.45;4.57;;;10.00;99.90;;;10.67;61.72;102788.94;5114009;28;20043;-71
2023/05/03 07:19:37;;;;;;;8.50;4.55;;;10.40;99.90;;;10.58;63.20;102756.06;5113940;28;20046;-71
2023/05/03 07:22:06;;;;;;;8.80;5.03;;;10.50;99.90;;;10.96;61.76;102780.81;5113889;28;20047;-71
2023/05/03 07:24:34;;;;;;;11.70;5.10;;;10.70;99.90;;;10.00;62.45;102788.84;5113755;28;20423;-71
2023/05/03 07:27:02;;;;;;;8.48;4.72;;;10.00;99.90;;;9.78;62.68;102767.00;5109806;28;20046;-70
2023/05/03 07:29:32;;;;;;;7.05;4.90;;;9.70;99.90;;;10.35;62.20;102770.44;5092489;28;20048;-71
2023/05/03 07:32:01;;;;;;;8.40;4.50;;;10.10;99.90;;;9.89;63.33;102760.31;5113573;28;20063;-70
2023/05/03 07:34:31;;;;;;;11.25;4.53;;;9.80;99.90;;;10.51;62.80;102759.41;5113415;28;20148;-71
2023/05/03 07:36:59;;;;;;;10.18;5.07;;;10.10;99.90;;;10.27;63.04;102764.03;5113289;28;20085;-71
2023/05/03 07:39:28;;;;;;;8.63;4.55;;;10.10;99.90;;;10.73;62.98;102752.06;5113284;28;20523;-72
2023/05/03 07:41:56;;;;;;;7.10;5.07;;;10.30;99.90;;;10.97;60.88;102765.00;5113824;28;20492;-72
2023/05/03 07:44:25;;;;;;;6.68;4.57;;;10.70;99.90;;;10.76;63.24;102765.34;5113489;28;20461;-72
2023/05/03 07:46:54;;;;;;;5.95;4.10;;;10.50;99.90;;;10.75;62.01;102771.50;5113325;28;20067;-72
2023/05/03 07:49:23;;;;;;;8.67;5.00;;;10.50;99.90;;;11.16;60.76;102787.53;5109188;28;20052;-72
2023/05/03 07:51:51;;;;;;;11.38;4.88;;;10.90;99.90;;;11.18;60.96;102760.22;5083387;28;20150;-71
2023/05/03 07:54:20;;;;;;;10.90;4.47;;;11.00;99.90;;;10.94;59.79;102785.22;5112390;28;20404;-72
2023/05/03 07:56:48;;;;;;;5.95;4.18;;;10.80;99.90;;;10.65;60.77;102765.94;5113420;28;20043;-72
2023/05/03 07:59:16;;;;;;;10.30;4.45;;;10.70;99.90;;;10.47;62.29;102771.63;5112922;28;20058;-71
2023/05/03 08:01:45;;;;;;;7.88;4.75;;;10.30;99.90;;;11.01;61.96;102771.25;5113611;28;20039;-71
2023/05/03 08:04:14;;;;;;;7.93;4.30;;;10.70;99.90;;;11.05;61.65;102770.47;5113245;28;20519;-72
2023/05/03 08:06:43;;;;;;;8.60;4.30;;;10.80;99.90;;;11.03;61.63;102764.25;5113124;28;20043;-72
2023/05/03 08:09:12;;;;;;;14.07;4.75;;;10.80;99.90;;;11.38;60.38;102771.28;5112809;28;20040;-72
2023/05/03 08:11:41;;;;;;;10.85;5.35;;;11.10;99.90;;;11.37;62.00;102754.47;5113415;28;20049;-71
2023/05/03 08:14:12;;;;;;;12.07;5.45;;;11.10;99.90;;;11.87;60.45;102754.69;5109207;28;20069;-71
2023/05/03 08:16:40;;;;;;;8.48;4.80;;;11.50;99.90;;;12.19;59.24;102761.53;5113269;28;20042;-70
2023/05/03 08:19:09;;;;;;;8.75;4.50;;;11.90;99.90;;;12.44;58.17;102771.75;5112776;28;20031;-71
2023/05/03 08:21:38;;;;;;;12.05;5.25;;;12.20;99.90;;;11.36;61.73;102754.44;5112745;28;20497;-70
2023/05/03 08:24:08;;;;;;;9.17;5.03;;;11.40;99.90;;;11.94;59.78;102777.84;5113232;28;20132;-70
2023/05/03 08:26:36;;;;;;;8.68;5.25;;;11.60;99.90;;;11.11;59.66;102765.34;5113297;28;20047;-69
2023/05/03 08:29:05;;;;;;;10.52;5.60;;;11.00;99.90;;;11.56;62.00;102764.63;5113095;28;20054;-68
2023/05/03 08:31:33;;;;;;;12.68;5.50;;;11.20;99.90;;;12.03;59.63;102778.91;5112972;28;20032;-68
2023/05/03 08:34:02;;;;;;;6.93;4.45;;;11.70;99.90;;;12.26;60.09;102785.56;5082737;28;20070;-72
2023/05/03 08:36:31;;;;;;;12.90;5.82;;;11.90;99.90;;;12.06;59.76;102775.44;5108853;28;20088;-73
2023/05/03 08:39:05;;;;;;;7.10;4.80;;;11.90;99.90;;;12.52;58.78;102751.56;5112890;28;20046;-73
2023/05/03 08:41:34;;;;;;;9.52;5.38;;;12.30;99.90;;;13.05;57.63;102761.34;5112633;28;20036;-71
2023/05/03 08:44:04;;;;;;;8.63;4.80;;;12.70;99.90;;;11.97;58.20;102784.09;5112491;28;20051;-78
2023/05/03 08:46:35;;;;;;;11.75;5.05;;;12.10;99.90;;;12.16;59.32;102780.03;5112889;28;20044;-75
2023/05/03 08:49:06;;;;;;;10.27;5.28;;;11.90;99.90;;;12.71;58.01;102782.88;5112592;28;20530;-75
2023/05/03 08:51:35;;;;;;;7.57;4.68;;;12.30;99.90;;;12.18;57.12;102794.22;5109021;28;20432;-75
2023/05/03 08:54:05;;;;;;;11.70;5.22;;;12.10;99.90;;;12.86;58.55;102790.19;5112999;28;20092;-74
2023/05/03 08:56:40;;;;;;;9.52;4.97;;;12.40;99.90;;;12.91;57.16;102800.03;5112543;28;20062;-74
2023/05/03 08:59:10;;;;;;;10.13;5.75;;;12.70;99.90;;;13.08;58.56;102792.38;5112425;28;20043;-74
2023/05/03 09:01:40;;;;;;;21.17;5.63;;;12.70;99.90;;;12.89;55.47;102785.81;5112489;28;20067;-74
2023/05/03 09:04:10;;;;;;;10.23;5.13;;;12.80;99.90;;;13.15;57.88;102783.63;5112845;28;20412;-74
2023/05/03 09:06:40;;;;;;;9.40;5.57;;;12.80;99.90;;;13.63;55.52;102796.78;5111072;28;20114;-74
2023/05/03 09:09:10;;;;;;;8.13;5.40;;;13.30;99.90;;;13.71;54.05;102803.06;5116584;28;20132;-74
2023/05/03 09:11:39;;;;;;;8.55;5.05;;;13.50;99.90;;;12.16;56.65;102801.25;5116292;28;20138;-75
2023/05/03 09:14:12;;;;;;;10.38;5.47;;;12.20;99.90;;;12.40;56.97;102785.84;5116173;28;20057;-74
2023/05/03 09:16:44;;;;;;;9.63;5.50;;;12.20;99.90;;;12.50;59.61;102788.66;5089862;28;20138;-70
2023/05/03 09:19:15;;;;;;;8.93;5.40;;;12.10;99.90;;;13.22;58.21;102788.19;5116353;28;20036;-71
2023/05/03 09:21:46;;;;;;;9.50;5.35;;;12.70;99.90;;;13.55;56.31;102778.03;5113106;28;20070;-69
2023/05/03 09:24:18;;;;;;;10.40;5.40;;;13.20;99.90;;;13.57;56.44;102798.47;5098164;28;20054;-69
2023/05/03 09:26:48;;;;;;;10.65;5.65;;;13.40;99.90;;;13.48;58.11;102794.78;5116304;28;20059;-69
2023/05/03 09:29:29;;;;;;;11.90;5.82;;;13.10;99.90;;;14.08;56.56;102786.72;5116008;28;20043;-69
2023/05/03 09:32:04;;;;;;;7.80;5.57;;;13.70;99.90;;;14.18;54.15;102760.25;5112771;28;20131;-69
2023/05/03 09:34:33;;;;;;;7.35;5.97;;;14.10;99.90;;;12.64;56.25;102770.34;5116231;28;20036;-69
2023/05/03 09:37:02;;;;;;;12.98;6.03;;;12.80;99.90;;;13.36;55.83;102774.22;5116351;28;20050;-70
2023/05/03 09:39:31;;;;;;;10.38;6.07;;;13.10;99.90;;;12.80;55.52;102783.03;5115803;28;20051;-69
2023/05/03 09:42:10;;;;;;;11.77;6.13;;;12.70;99.90;;;13.02;57.13;102777.22;5115815;28;20549;-70
2023/05/03 09:44:50;;;;;;;7.75;5.93;;;12.70;99.90;;;13.50;56.68;102783.31;5113535;28;20032;-70
2023/05/03 09:47:18;;;;;;;9.70;6.38;;;13.10;99.90;;;13.63;56.22;102772.84;5115995;28;20057;-70
2023/05/03 09:49:47;;;;;;;7.40;5.70;;;13.30;99.90;;;13.04;56.27;102790.53;5085627;28;20504;-69
2023/05/03 09:52:16;;;;;;;14.90;6.32;;;12.90;99.90;;;12.41;57.38;102787.59;5111694;28;20122;-70
2023/05/03 09:54:46;;;;;;;8.90;5.65;;;12.30;99.90;;;12.99;57.79;102785.09;5116035;28;20124;-68
2023/05/03 09:57:15;;;;;;;11.48;6.30;;;12.60;99.90;;;12.99;57.51;102789.56;5115666;28;20443;-69
2023/05/03 09:59:46;;;;;;;12.40;6.43;;;12.60;99.90;;;12.88;57.33;102789.34;5115195;28;20415;-69
2023/05/03 10:02:15;;;;;;;12.77;6.13;;;12.60;99.90;;;13.03;58.28;102786.97;5114935;28;20135;-69
2023/05/03 10:04:48;;;;;;;9.60;6.18;;;12.70;99.90;;;12.33;57.57;102795.41;5115368;28;20096;-69
2023/05/03 10:07:19;;;;;;;9.15;6.25;;;12.20;99.90;;;12.59;59.11;102804.78;5115437;28;20066;-69
2023/05/03 10:09:49;;;;;;;11.52;6.45;;;12.20;99.90;;;11.84;58.47;102784.72;5112214;28;20122;-70
2023/05/03 10:12:19;;;;;;;12.38;7.13;;;11.60;99.90;;;12.06;58.59;102778.97;5115118;28;20084;-69
2023/05/03 10:14:48;;;;;;;15.02;7.32;;;11.70;99.90;;;11.91;60.35;102780.41;5115650;28;20126;-70
2023/05/03 10:17:22;;;;;;;11.05;7.15;;;11.60;99.90;;;11.84;58.76;102773.19;5114202;28;20039;-70
2023/05/03 10:20:17;;;;;;;11.00;6.60;;;11.50;99.90;;;12.02;60.02;102762.97;5112919;28;20040;-69
2023/05/03 10:23:13;;;;;;;12.30;6.72;;;11.70;99.90;;;12.45;58.77;102766.47;5114948;28;20156;-70